Time;durP1;ratioP1;P1;durP2;ratioP2;P2;SDS_P1;SDS_P2;PMS_P1;PMS_P2;Temp;Humidity;BMP_temperature;BMP_pressure;BME280_temperature;BME280_humidity;BME280_pressure;Samples;Min_cycle;Max_cycle;Signal;HPM_P1;HPM_P2
2022/04/06 00:01:45;;;;;;;8.27;5.73;;;;;;;6.75;100.00;95543.75;5100265;27;20500;-75
2022/04/06 00:04:11;;;;;;;11.30;6.60;;;;;;;6.72;100.00;95554.50;5101609;27;20023;-75
2022/04/06 00:06:37;;;;;;;9.03;5.93;;;;;;;6.73;100.00;95545.69;5091900;27;20097;-75
2022/04/06 00:09:04;;;;;;;8.50;6.30;;;;;;;6.74;100.00;95541.28;5105713;27;20496;-74
2022/04/06 00:11:30;;;;;;;12.47;6.33;;;;;;;6.75;100.00;95538.53;5102251;28;20055;-74
2022/04/06 00:13:57;;;;;;;9.63;6.83;;;;;;;6.78;100.00;95527.78;5105892;27;20084;-74
2022/04/06 00:16:23;;;;;;;9.27;6.57;;;;;;;6.82;100.00;95529.09;5107092;27;20023;-75
2022/04/06 00:18:48;;;;;;;9.33;6.47;;;;;;;6.79;100.00;95534.63;5110575;27;20529;-75
2022/04/06 00:21:14;;;;;;;10.13;6.97;;;;;;;6.81;100.00;95534.50;5114251;27;20030;-75
2022/04/06 00:23:40;;;;;;;9.20;6.17;;;;;;;6.78;100.00;95527.78;5111166;27;20027;-75
2022/04/06 00:26:06;;;;;;;8.40;5.70;;;;;;;6.88;100.00;95525.06;5099667;27;20048;-75
2022/04/06 00:28:32;;;;;;;11.73;7.07;;;;;;;6.85;100.00;95525.38;5109506;27;20184;-75
2022/04/06 00:30:58;;;;;;;10.97;7.00;;;;;;;6.87;100.00;95518.19;5115678;27;20547;-75
2022/04/06 00:33:24;;;;;;;9.17;6.63;;;;;;;6.89;100.00;95518.84;5107183;27;20112;-74
2022/04/06 00:35:50;;;;;;;9.80;5.97;;;;;;;6.87;100.00;95519.97;5111736;27;20008;-74
2022/04/06 00:38:17;;;;;;;11.10;6.10;;;;;;;6.85;100.00;95520.97;5112763;27;20492;-75
2022/04/06 00:40:42;;;;;;;10.17;6.80;;;;;;;6.86;100.00;95519.16;5106792;27;20447;-74
2022/04/06 00:43:11;;;;;;;10.53;6.00;;;;;;;6.87;100.00;95517.38;5104885;27;20058;-74
2022/04/06 00:45:38;;;;;;;11.97;6.50;;;;;;;6.85;100.00;95510.50;5083429;28;20023;-74
2022/04/06 00:48:05;;;;;;;10.13;6.37;;;;;;;6.84;100.00;95511.50;5110862;27;20054;-75
2022/04/06 00:50:31;;;;;;;9.70;6.27;;;;;;;6.92;100.00;95509.91;5096131;28;20118;-75
2022/04/06 00:52:57;;;;;;;9.33;5.67;;;;;;;6.92;100.00;95502.88;5107073;27;20034;-74
2022/04/06 00:55:26;;;;;;;9.80;6.00;;;;;;;6.92;100.00;95502.06;5107456;28;20102;-75
2022/04/06 00:57:52;;;;;;;7.77;5.90;;;;;;;6.94;100.00;95503.53;5109983;27;20049;-75
2022/04/06 01:00:18;;;;;;;10.17;5.93;;;;;;;6.99;100.00;95492.63;5103512;27;20070;-74
2022/04/06 01:02:44;;;;;;;9.93;6.10;;;;;;;6.99;100.00;95496.03;5100536;27;20110;-74
2022/04/06 01:05:10;;;;;;;9.00;6.20;;;;;;;6.99;100.00;95498.66;5116643;27;20094;-74
2022/04/06 01:07:36;;;;;;;9.20;5.77;;;;;;;6.96;100.00;95491.13;5111664;27;20035;-75
2022/04/06 01:10:02;;;;;;;8.80;5.77;;;;;;;6.96;100.00;95482.47;5085040;28;20089;-74
2022/04/06 01:12:29;;;;;;;8.00;5.20;;;;;;;6.97;100.00;95484.09;5104575;28;20408;-75
2022/04/06 01:14:55;;;;;;;8.87;6.07;;;;;;;6.96;100.00;95485.09;5101795;28;20025;-74
2022/04/06 01:17:20;;;;;;;7.80;5.53;;;;;;;6.91;100.00;95479.47;5115300;27;20028;-74
2022/04/06 01:19:47;;;;;;;8.30;5.43;;;;;;;6.94;100.00;95474.78;5116053;27;20019;-75
2022/04/06 01:22:18;;;;;;;7.77;5.17;;;;;;;6.95;100.00;95483.44;5114199;27;20039;-74
2022/04/06 01:24:45;;;;;;;7.93;5.27;;;;;;;6.97;100.00;95479.69;5107822;27;20361;-75
2022/04/06 01:27:12;;;;;;;8.27;5.27;;;;;;;6.99;100.00;95474.31;5106402;27;20027;-74
2022/04/06 01:29:40;;;;;;;9.57;5.53;;;;;;;7.01;100.00;95480.22;5112182;27;20134;-74
2022/04/06 01:32:12;;;;;;;8.53;5.53;;;;;;;7.03;100.00;95478.25;5107432;27;20038;-74
2022/04/06 01:34:39;;;;;;;8.30;5.20;;;;;;;7.04;100.00;95479.88;5101208;28;20040;-75
2022/04/06 01:37:07;;;;;;;8.70;5.30;;;;;;;7.00;100.00;95473.34;5112807;27;20031;-74
2022/04/06 01:39:34;;;;;;;8.93;5.70;;;;;;;7.02;100.00;95479.25;5118158;27;20453;-74
2022/04/06 01:42:00;;;;;;;8.93;5.77;;;;;;;7.04;100.00;95474.66;5119509;27;20027;-75
2022/04/06 01:44:25;;;;;;;10.10;5.60;;;;;;;7.04;100.00;95479.88;5093512;28;20040;-74
2022/04/06 01:46:51;;;;;;;8.10;5.30;;;;;;;7.12;100.00;95476.50;5115827;27;20035;-74
2022/04/06 01:52:13;;;;;;;8.40;5.57;;;;;;;7.03;100.00;95470.41;5109426;27;20027;-74
2022/04/06 01:54:40;;;;;;;8.30;5.67;;;;;;;7.09;100.00;95464.56;5090910;28;20035;-74
2022/04/06 01:57:06;;;;;;;10.00;5.93;;;;;;;7.05;100.00;95460.63;5106142;27;20139;-74
2022/04/06 01:59:32;;;;;;;7.70;5.47;;;;;;;7.01;100.00;95470.59;5111837;27;20110;-74
2022/04/06 02:01:58;;;;;;;8.17;5.83;;;;;;;7.01;100.00;95464.53;5116139;27;20027;-74
2022/04/06 02:04:23;;;;;;;10.13;6.30;;;;;;;7.01;100.00;95462.75;5109541;27;20035;-74
2022/04/06 02:06:49;;;;;;;12.90;5.83;;;;;;;6.99;100.00;95454.22;5111846;27;20096;-74
2022/04/06 02:09:15;;;;;;;7.33;5.47;;;;;;;7.06;100.00;95457.84;5113943;27;20112;-74
2022/04/06 02:11:42;;;;;;;8.53;5.20;;;;;;;7.04;100.00;95456.34;5120245;27;20031;-75
2022/04/06 02:14:08;;;;;;;9.67;5.63;;;;;;;7.04;100.00;95462.44;5115784;27;20038;-74
2022/04/06 02:16:35;;;;;;;8.53;5.83;;;;;;;7.02;100.00;95455.72;5112066;27;20678;-73
2022/04/06 02:19:01;;;;;;;9.27;5.40;;;;;;;7.03;100.00;95455.53;5112696;27;20034;-74
2022/04/06 02:21:27;;;;;;;9.80;5.73;;;;;;;6.99;100.00;95456.03;5114453;27;20019;-74
2022/04/06 02:23:53;;;;;;;8.80;6.30;;;;;;;7.04;100.00;95448.50;5117823;27;20098;-74
2022/04/06 02:26:19;;;;;;;10.20;6.47;;;;;;;7.03;100.00;95447.69;5107574;27;20443;-74
2022/04/06 02:28:45;;;;;;;7.70;5.00;;;;;;;7.00;100.00;95449.81;5115633;27;20064;-74
2022/04/06 02:31:10;;;;;;;8.90;5.33;;;;;;;6.93;100.00;95441.78;5115499;27;20023;-74
2022/04/06 02:33:36;;;;;;;9.07;5.50;;;;;;;6.94;100.00;95448.66;5095231;28;20019;-74
2022/04/06 02:36:03;;;;;;;8.67;5.60;;;;;;;6.96;100.00;95440.66;5104379;27;20389;-74
2022/04/06 02:38:30;;;;;;;11.13;6.40;;;;;;;6.98;100.00;95443.94;5100409;28;20403;-74
2022/04/06 02:40:55;;;;;;;8.90;5.93;;;;;;;6.97;100.00;95452.72;5109310;27;20031;-74
2022/04/06 02:43:21;;;;;;;8.70;5.70;;;;;;;6.93;100.00;95444.38;5112432;27;20856;-74
2022/04/06 02:45:47;;;;;;;10.07;5.70;;;;;;;6.94;100.00;95446.03;5106789;27;20136;-74
2022/04/06 02:48:14;;;;;;;10.83;5.43;;;;;;;7.00;100.00;95441.97;5105327;27;20164;-74
2022/04/06 02:50:41;;;;;;;7.83;5.30;;;;;;;6.98;100.00;95451.78;5119882;27;20553;-74
2022/04/06 02:53:07;;;;;;;9.30;5.53;;;;;;;6.98;100.00;95455.19;5101703;27;20020;-74
2022/04/06 02:55:33;;;;;;;7.50;5.40;;;;;;;7.00;100.00;95445.38;5111809;27;20035;-74
2022/04/06 02:57:59;;;;;;;9.63;5.70;;;;;;;7.03;100.00;95439.03;5116765;27;20045;-74
2022/04/06 03:00:25;;;;;;;9.70;6.03;;;;;;;6.98;100.00;95438.72;5105386;27;20475;-74
2022/04/06 03:02:50;;;;;;;8.03;5.50;;;;;;;7.03;100.00;95436.44;5120182;27;20600;-74
2022/04/06 03:05:16;;;;;;;10.20;6.40;;;;;;;6.97;100.00;95431.81;5109120;27;20099;-74
2022/04/06 03:07:42;;;;;;;10.00;6.27;;;;;;;6.95;100.00;95439.00;5098875;28;20546;-74
2022/04/06 03:10:09;;;;;;;11.50;6.10;;;;;;;6.94;100.00;95437.34;5112644;27;20023;-74
2022/04/06 03:12:35;;;;;;;9.97;6.53;;;;;;;6.90;100.00;95428.19;5118403;27;20034;-74
2022/04/06 03:15:00;;;;;;;9.17;6.00;;;;;;;6.90;100.00;95421.16;5120679;27;20027;-74
2022/04/06 03:17:26;;;;;;;12.50;6.27;;;;;;;6.90;100.00;95426.41;5118431;27;20607;-74
2022/04/06 03:19:52;;;;;;;9.97;5.80;;;;;;;6.92;100.00;95418.41;5117322;27;20029;-74
2022/04/06 03:22:17;;;;;;;7.87;6.30;;;;;;;6.97;100.00;95416.13;5111397;27;20035;-74
2022/04/06 03:24:44;;;;;;;10.57;6.83;;;;;;;6.93;100.00;95414.81;5111050;27;20036;-74
2022/04/06 03:27:10;;;;;;;11.17;6.57;;;;;;;6.92;100.00;95413.19;5100421;27;20031;-74
2022/04/06 03:29:36;;;;;;;11.00;6.60;;;;;;;6.94;100.00;95413.84;5112011;27;20038;-74
2022/04/06 03:32:01;;;;;;;10.67;6.40;;;;;;;6.95;100.00;95407.66;5108178;27;20038;-74
2022/04/06 03:34:28;;;;;;;8.10;6.00;;;;;;;6.98;100.00;95402.09;5090997;27;20388;-74
2022/04/06 03:36:53;;;;;;;11.90;6.87;;;;;;;6.99;100.00;95396.72;5110516;27;20435;-74
2022/04/06 03:39:19;;;;;;;9.43;6.20;;;;;;;7.00;100.00;95405.38;5111751;27;20047;-74
2022/04/06 03:41:45;;;;;;;10.70;6.03;;;;;;;6.98;100.00;95408.16;5110089;28;20037;-74
2022/04/06 03:44:11;;;;;;;8.67;6.17;;;;;;;7.01;100.00;95402.63;5105818;27;20036;-74
2022/04/06 03:46:37;;;;;;;9.40;6.40;;;;;;;7.03;100.00;95400.63;5115326;27;20024;-74
2022/04/06 03:49:02;;;;;;;9.73;6.23;;;;;;;7.03;100.00;95411.09;5114417;27;20030;-74
2022/04/06 03:51:29;;;;;;;11.20;6.43;;;;;;;7.06;100.00;95404.75;5113453;27;20020;-74
2022/04/06 03:53:54;;;;;;;8.67;5.80;;;;;;;7.01;100.00;95396.56;5104928;27;20047;-74
2022/04/06 03:56:20;;;;;;;8.80;5.87;;;;;;;7.00;100.00;95405.38;5111629;27;20015;-74
2022/04/06 03:58:46;;;;;;;14.80;6.60;;;;;;;7.01;100.00;95400.00;5107207;27;20031;-74
2022/04/06 04:01:12;;;;;;;8.67;5.40;;;;;;;7.00;100.00;95406.19;5108551;27;20035;-74
2022/04/06 04:03:38;;;;;;;9.67;6.43;;;;;;;7.01;100.00;95392.16;5115996;27;20057;-74
2022/04/06 04:06:03;;;;;;;9.20;6.23;;;;;;;7.03;100.00;95403.25;5113215;27;20660;-74
2022/04/06 04:08:29;;;;;;;11.47;6.80;;;;;;;6.98;100.00;95402.09;5116166;27;20396;-74
2022/04/06 04:10:55;;;;;;;10.83;7.07;;;;;;;6.99;100.00;95398.50;5111481;27;20043;-74
2022/04/06 04:13:20;;;;;;;10.50;7.23;;;;;;;6.98;100.00;95386.44;5103767;27;20039;-74
2022/04/06 04:15:46;;;;;;;9.03;6.40;;;;;;;6.94;100.00;95387.69;5106738;28;20035;-74
2022/04/06 04:18:12;;;;;;;8.67;5.80;;;;;;;6.95;100.00;95390.16;5104837;27;20028;-73
2022/04/06 04:20:40;;;;;;;9.73;6.80;;;;;;;6.96;100.00;95388.38;5108878;28;20034;-74
2022/04/06 04:23:05;;;;;;;8.07;5.73;;;;;;;7.01;100.00;95388.72;5105612;27;20027;-74
2022/04/06 04:25:31;;;;;;;8.70;6.30;;;;;;;7.00;100.00;95379.22;5115207;27;20601;-74
2022/04/06 04:27:57;;;;;;;10.07;6.87;;;;;;;6.95;100.00;95384.13;5091023;28;20032;-74
2022/04/06 04:30:23;;;;;;;11.07;6.63;;;;;;;7.00;100.00;95372.19;5115605;27;20042;-73
2022/04/06 04:32:48;;;;;;;8.40;5.90;;;;;;;6.94;100.00;95382.47;5096392;27;20118;-74
2022/04/06 04:35:14;;;;;;;10.57;6.67;;;;;;;6.93;100.00;95391.28;5102029;28;20030;-73
2022/04/06 04:37:40;;;;;;;9.17;5.97;;;;;;;6.96;100.00;95388.38;5110662;27;20031;-74
2022/04/06 04:40:06;;;;;;;9.90;6.43;;;;;;;6.95;100.00;95387.56;5105955;27;20047;-73
2022/04/06 04:42:32;;;;;;;9.63;6.70;;;;;;;6.96;100.00;95378.72;5097238;28;20487;-74
2022/04/06 04:45:00;;;;;;;11.57;6.47;;;;;;;6.93;100.00;95384.25;5103018;28;20035;-74
2022/04/06 04:47:25;;;;;;;8.73;6.37;;;;;;;6.96;100.00;95383.13;5111134;27;20035;-75
2022/04/06 04:49:51;;;;;;;9.17;6.60;;;;;;;6.97;100.00;95376.94;5114613;27;20111;-73
2022/04/06 04:52:17;;;;;;;10.73;6.73;;;;;;;6.92;100.00;95379.22;5112443;27;20047;-73
2022/04/06 04:54:43;;;;;;;9.60;6.00;;;;;;;6.92;100.00;95376.59;5107870;27;20023;-73
2022/04/06 04:57:09;;;;;;;9.53;6.57;;;;;;;6.95;100.00;95376.28;5090776;28;20031;-74
2022/04/06 04:59:34;;;;;;;9.93;6.53;;;;;;;6.97;100.00;95374.31;5103849;28;20027;-74
2022/04/06 05:02:00;;;;;;;8.77;6.73;;;;;;;6.95;100.00;95376.28;5105530;27;20105;-74
2022/04/06 05:04:26;;;;;;;9.40;7.03;;;;;;;6.98;100.00;95374.16;5108700;27;20063;-73
2022/04/06 05:06:52;;;;;;;10.23;6.63;;;;;;;7.03;100.00;95381.53;5112347;27;20114;-74
2022/04/06 05:09:17;;;;;;;8.30;6.30;;;;;;;6.99;100.00;95369.75;5104407;28;20102;-74
2022/04/06 05:11:43;;;;;;;10.67;6.80;;;;;;;7.01;100.00;95376.47;5100769;28;20122;-74
2022/04/06 05:14:09;;;;;;;8.73;6.57;;;;;;;7.02;100.00;95372.06;5116093;27;20019;-74
2022/04/06 05:16:35;;;;;;;9.33;7.10;;;;;;;7.03;100.00;95378.91;5118557;28;20430;-74
2022/04/06 05:19:01;;;;;;;10.60;6.90;;;;;;;7.02;100.00;95378.09;5114256;28;20042;-73
2022/04/06 05:21:27;;;;;;;10.83;6.80;;;;;;;7.06;100.00;95373.38;5118400;28;20376;-74
2022/04/06 05:23:53;;;;;;;10.27;6.50;;;;;;;7.06;100.00;95373.38;5097295;28;20111;-73
2022/04/06 05:26:18;;;;;;;9.13;6.37;;;;;;;7.07;100.00;95375.81;5109233;28;20032;-73
2022/04/06 05:28:44;;;;;;;9.20;6.20;;;;;;;7.10;100.00;95374.69;5105052;28;20031;-73
2022/04/06 05:31:10;;;;;;;9.00;6.60;;;;;;;7.13;100.00;95374.38;5116329;28;20032;-74
2022/04/06 05:33:35;;;;;;;10.13;6.83;;;;;;;7.13;100.00;95374.38;5106275;28;20480;-74
2022/04/06 05:36:02;;;;;;;8.87;6.13;;;;;;;7.16;100.00;95376.66;5113745;28;20015;-74
2022/04/06 05:38:28;;;;;;;8.93;6.27;;;;;;;7.18;100.00;95372.09;5109026;28;20091;-74
2022/04/06 05:40:54;;;;;;;8.40;6.03;;;;;;;7.17;100.00;95375.69;5091279;28;20476;-73
2022/04/06 05:43:19;;;;;;;10.83;6.50;;;;;;;7.22;100.00;95372.59;5120205;28;20027;-74
2022/04/06 05:45:45;;;;;;;9.27;6.13;;;;;;;7.24;100.00;95376.72;5111205;28;20066;-74
2022/04/06 05:48:11;;;;;;;8.67;6.23;;;;;;;7.25;100.00;95378.34;5114280;28;20019;-74
2022/04/06 05:50:38;;;;;;;8.70;5.63;;;;;;;7.23;100.00;95374.22;5106913;28;20042;-74
2022/04/06 05:53:03;;;;;;;8.37;5.80;;;;;;;7.20;100.00;95380.59;5108137;28;20712;-74
2022/04/06 05:55:29;;;;;;;9.97;6.17;;;;;;;7.23;100.00;95375.06;5115830;28;20039;-74
2022/04/06 05:57:55;;;;;;;8.17;5.70;;;;;;;7.20;100.00;95380.59;5109514;28;20032;-74
2022/04/06 06:00:21;;;;;;;8.37;6.20;;;;;;;7.27;100.00;95381.59;5109776;28;20035;-74
2022/04/06 06:02:47;;;;;;;10.83;5.93;;;;;;;7.28;100.00;95377.22;5107245;28;20036;-75
2022/04/06 06:05:12;;;;;;;8.77;5.83;;;;;;;7.29;100.00;95384.06;5109971;27;20026;-74
2022/04/06 06:07:38;;;;;;;8.90;6.00;;;;;;;7.29;100.00;95377.03;5113853;27;20034;-74
2022/04/06 06:10:04;;;;;;;9.43;6.20;;;;;;;7.32;100.00;95376.72;5103122;27;20395;-74
2022/04/06 06:12:31;;;;;;;9.03;6.60;;;;;;;7.31;100.00;95372.47;5107094;27;20524;-74
2022/04/06 06:14:57;;;;;;;10.67;6.77;;;;;;;7.40;100.00;95380.31;5119746;27;20027;-74
2022/04/06 06:17:24;;;;;;;9.67;5.60;;;;;;;7.39;100.00;95379.50;5109686;27;20093;-75
2022/04/06 06:19:50;;;;;;;9.37;5.90;;;;;;;7.37;100.00;95376.22;5114002;27;20024;-74
2022/04/06 06:22:16;;;;;;;10.00;5.93;;;;;;;7.37;100.00;95385.88;5117024;27;20858;-74
2022/04/06 06:24:41;;;;;;;8.97;5.97;;;;;;;7.41;100.00;95384.56;5111922;27;20384;-74
2022/04/06 06:27:07;;;;;;;7.87;5.93;;;;;;;7.50;100.00;95378.38;5104116;27;20102;-74
2022/04/06 06:29:33;;;;;;;8.50;5.40;;;;;;;7.48;100.00;95378.56;5091617;27;20063;-74
2022/04/06 06:31:59;;;;;;;9.10;6.27;;;;;;;7.49;100.00;95364.47;5094326;28;20024;-74
2022/04/06 06:34:25;;;;;;;10.33;5.87;;;;;;;7.47;100.00;95376.09;5118320;27;20109;-74
2022/04/06 06:36:51;;;;;;;10.13;5.90;;;;;;;7.47;100.00;95370.84;5107939;27;20396;-75
2022/04/06 06:39:17;;;;;;;9.63;5.93;;;;;;;7.53;100.00;95371.03;5111227;27;20043;-74
2022/04/06 06:41:43;;;;;;;8.47;5.87;;;;;;;7.60;100.00;95371.19;5112890;27;20032;-74
2022/04/06 06:44:08;;;;;;;9.13;6.17;;;;;;;7.66;100.00;95375.78;5112198;27;20102;-74
2022/04/06 06:46:34;;;;;;;8.87;5.97;;;;;;;7.64;100.00;95367.28;5110104;27;20374;-74
2022/04/06 06:49:03;;;;;;;8.70;6.00;;;;;;;7.60;100.00;95371.19;5110391;27;20027;-74
2022/04/06 06:51:30;;;;;;;7.37;5.27;;;;;;;7.67;100.00;95366.94;5104762;28;20020;-74
2022/04/06 06:54:00;;;;;;;11.20;6.10;;;;;;;7.60;100.00;95371.19;5108415;27;20057;-74
2022/04/06 06:56:26;;;;;;;9.27;5.93;;;;;;;7.62;100.00;95376.28;5101411;28;20071;-74
2022/04/06 06:58:52;;;;;;;10.00;5.80;;;;;;;7.67;100.00;95372.19;5106653;27;20132;-74
2022/04/06 07:01:18;;;;;;;7.50;5.30;;;;;;;7.67;100.00;95371.38;5120944;27;20111;-74
2022/04/06 07:03:43;;;;;;;11.33;6.43;;;;;;;7.71;100.00;95370.91;5106259;27;20046;-74
2022/04/06 07:06:09;;;;;;;8.53;6.03;;;;;;;7.68;100.00;95368.59;5110648;27;20077;-75
2022/04/06 07:08:35;;;;;;;9.03;5.90;;;;;;;7.85;100.00;95366.00;5109009;28;20040;-74
2022/04/06 07:11:01;;;;;;;10.17;5.43;;;;;;;7.88;100.00;95363.03;5105192;28;20035;-74
2022/04/06 07:13:27;;;;;;;11.30;5.73;;;;;;;7.91;100.00;95367.94;5110282;27;20452;-74
2022/04/06 07:15:53;;;;;;;9.77;7.07;;;;;;;7.95;100.00;95361.41;5112281;27;20031;-75
2022/04/06 07:18:21;;;;;;;9.00;5.40;;;;;;;7.95;100.00;95367.47;5116410;27;20040;-74
2022/04/06 07:20:47;;;;;;;9.40;5.43;;;;;;;7.96;100.00;95356.00;5109420;27;20035;-74
2022/04/06 07:23:13;;;;;;;8.23;5.73;;;;;;;8.04;100.00;95363.84;5111795;27;20038;-75
2022/04/06 07:25:42;;;;;;;8.33;5.37;;;;;;;8.07;100.00;95365.31;5110747;27;20023;-74
2022/04/06 07:28:08;;;;;;;8.00;5.07;;;;;;;8.19;100.00;95356.16;5111513;27;20023;-74
2022/04/06 07:30:34;;;;;;;7.77;4.87;;;;;;;8.23;100.00;95354.81;5108641;27;20035;-75
2022/04/06 07:33:00;;;;;;;9.30;5.20;;;;;;;8.30;100.00;95362.03;5107903;27;20031;-74
2022/04/06 07:35:27;;;;;;;8.47;4.97;;;;;;;8.32;100.00;95353.03;5115599;27;20439;-74
2022/04/06 07:37:53;;;;;;;7.43;4.80;;;;;;;8.34;100.00;95353.66;5109024;27;20434;-74
2022/04/06 07:40:21;;;;;;;6.90;4.17;;;;;;;8.42;100.00;95347.63;5101373;27;20036;-74
2022/04/06 07:42:49;;;;;;;6.63;4.40;;;;;;;8.51;100.00;95359.69;5117415;27;20026;-74
2022/04/06 07:45:17;;;;;;;7.80;4.73;;;;;;;8.58;100.00;95357.22;5116722;27;20476;-74
2022/04/06 07:47:45;;;;;;;9.13;5.00;;;;;;;8.66;100.00;95349.34;5112295;27;20080;-75
2022/04/06 07:50:14;;;;;;;7.20;4.43;;;;;;;8.69;100.00;95351.66;5096291;27;20036;-74
2022/04/06 07:52:41;;;;;;;5.63;3.70;;;;;;;8.81;100.00;95347.66;5111031;27;20038;-74
2022/04/06 07:55:08;;;;;;;7.10;3.87;;;;;;;8.85;100.00;95342.88;5111329;27;20019;-74
2022/04/06 07:57:35;;;;;;;6.60;4.20;;;;;;;9.00;100.00;95346.44;5110477;27;20038;-74
2022/04/06 08:00:12;;;;;;;11.93;4.73;;;;;;;8.98;100.00;95341.34;5113350;27;20033;-75
2022/04/06 08:02:38;;;;;;;8.27;4.00;;;;;;;9.06;100.00;95339.69;5121608;27;20035;-74
2022/04/06 08:05:05;;;;;;;6.33;3.47;;;;;;;9.23;100.00;95343.84;5109452;27;20039;-74
2022/04/06 08:07:31;;;;;;;6.33;3.47;;;;;;;9.33;100.00;95339.22;5112998;27;21490;-74
2022/04/06 08:09:57;;;;;;;7.73;3.30;;;;;;;9.36;100.00;95345.94;5094271;28;20027;-74
2022/04/06 08:12:23;;;;;;;6.27;2.83;;;;;;;9.33;100.00;95344.47;5110432;27;20066;-75
2022/04/06 08:14:50;;;;;;;5.20;3.00;;;;;;;9.62;100.00;95348.19;5107285;27;20034;-75
2022/04/06 08:17:17;;;;;;;5.47;2.87;;;;;;;9.51;100.00;95346.78;5111832;27;20050;-74
2022/04/06 08:19:42;;;;;;;5.83;2.73;;;;;;;9.54;100.00;95338.56;5111997;27;20015;-74
2022/04/06 08:22:08;;;;;;;6.17;2.77;;;;;;;9.71;100.00;95327.97;5115863;27;20037;-75
2022/04/06 08:24:34;;;;;;;4.33;2.37;;;;;;;9.64;100.00;95336.53;5114996;27;20027;-75
2022/04/06 08:27:00;;;;;;;3.53;2.10;;;;;;;9.73;100.00;95339.13;5107998;27;20109;-74
2022/04/06 08:29:27;;;;;;;4.57;2.27;;;;;;;9.83;100.00;95343.13;5109240;27;20431;-74
2022/04/06 08:31:52;;;;;;;4.40;2.10;;;;;;;9.94;100.00;95334.00;5107709;27;20055;-75
2022/04/06 08:34:18;;;;;;;3.93;2.30;;;;;;;10.06;100.00;95337.84;5107272;27;20066;-75
2022/04/06 08:36:45;;;;;;;3.20;1.80;;;;;;;9.98;100.00;95332.66;5108989;27;20031;-75
2022/04/06 08:39:11;;;;;;;3.73;1.60;;;;;;;10.15;100.00;95336.75;5113664;27;20510;-74
2022/04/06 08:41:37;;;;;;;2.70;1.43;;;;;;;10.16;100.00;95340.22;5105117;28;20024;-74
2022/04/06 08:44:03;;;;;;;3.97;1.33;;;;;;;10.32;100.00;95339.28;5107781;27;20023;-74
2022/04/06 08:46:36;;;;;;;2.50;1.30;;;;;;;10.36;100.00;95330.88;5098825;27;20065;-74
2022/04/06 08:49:03;;;;;;;3.00;1.30;;;;;;;10.77;100.00;95327.78;5091443;27;20052;-74
2022/04/06 08:51:29;;;;;;;4.53;1.40;;;;;;;10.72;100.00;95335.38;5104624;27;20044;-74
2022/04/06 08:53:55;;;;;;;2.10;1.23;;;;;;;10.83;100.00;95326.22;5106832;27;20127;-74
2022/04/06 08:56:22;;;;;;;2.67;1.33;;;;;;;10.96;100.00;95320.31;5108644;27;20106;-74
2022/04/06 08:58:48;;;;;;;3.37;1.83;;;;;;;11.19;100.00;95323.63;5091299;27;20024;-74
2022/04/06 09:01:14;;;;;;;1.67;1.10;;;;;;;11.16;100.00;95321.34;5105992;27;20023;-74
2022/04/06 09:03:40;;;;;;;1.90;1.00;;;;;;;11.56;100.00;95324.41;5109603;27;20605;-75
2022/04/06 09:06:08;;;;;;;2.77;1.60;;;;;;;11.66;100.00;95317.03;5093035;28;20032;-74
2022/04/06 09:08:43;;;;;;;1.90;1.10;;;;;;;11.95;100.00;95323.19;5109237;27;20031;-74
2022/04/06 09:11:14;;;;;;;2.03;1.17;;;;;;;12.14;100.00;95313.81;5105164;28;20027;-75
2022/04/06 09:13:42;;;;;;;2.70;1.30;;;;;;;11.74;100.00;95316.91;5104924;28;20391;-74
2022/04/06 09:16:14;;;;;;;2.77;1.20;;;;;;;11.84;100.00;95316.63;5106205;28;20024;-75
2022/04/06 09:18:44;;;;;;;2.23;1.20;;;;;;;11.67;99.53;95309.94;5114564;28;20039;-75
2022/04/06 09:21:15;;;;;;;3.27;1.40;;;;;;;11.32;100.00;95309.78;5108890;28;20448;-74
2022/04/06 09:23:43;;;;;;;4.43;1.60;;;;;;;11.57;100.00;95305.81;5102908;28;20428;-75
2022/04/06 09:26:13;;;;;;;2.63;1.60;;;;;;;11.54;100.00;95313.28;5099514;28;20015;-74
2022/04/06 09:28:45;;;;;;;4.50;2.57;;;;;;;11.24;100.00;95317.81;5115527;27;20051;-74
2022/04/06 09:31:18;;;;;;;3.60;1.60;;;;;;;11.37;100.00;95317.97;5116448;27;20594;-74
2022/04/06 09:34:11;;;;;;;3.55;1.60;;;;;;;11.45;100.00;95315.19;5101725;28;20034;-74
2022/04/06 09:36:38;;;;;;;3.28;1.77;;;;;;;11.65;100.00;95317.22;5091515;28;20024;-74
2022/04/06 09:39:05;;;;;;;3.20;1.73;;;;;;;11.79;100.00;95305.78;5111163;27;20027;-74
2022/04/06 09:41:33;;;;;;;5.90;1.73;;;;;;;11.75;100.00;95299.28;5111500;27;20076;-74
2022/04/06 09:47:38;;;;;;;3.43;1.60;;;;;;;13.55;88.53;95288.72;5116004;27;20023;-74
2022/04/06 09:50:12;;;;;;;2.80;1.40;;;;;;;12.61;89.43;95291.19;5108963;27;20659;-74
2022/04/06 09:52:38;;;;;;;2.33;1.30;;;;;;;12.53;90.13;95294.00;5107639;27;20042;-75
2022/04/06 09:55:12;;;;;;;1.90;1.10;;;;;;;13.69;87.11;95286.94;5106170;27;20023;-74
2022/04/06 09:57:51;;;;;;;3.67;1.23;;;;;;;13.53;82.19;95269.63;5114054;27;20408;-74
2022/04/06 10:00:20;;;;;;;1.67;1.00;;;;;;;13.25;84.08;95276.88;5114022;27;20027;-74
2022/04/06 10:03:03;;;;;;;3.47;1.60;;;;;;;13.13;84.03;95280.06;5112884;27;20175;-74
2022/04/06 10:05:31;;;;;;;4.75;1.63;;;;;;;12.71;84.89;95279.28;5096606;27;20047;-75
2022/04/06 10:08:04;;;;;;;2.37;1.13;;;;;;;12.82;84.02;95270.00;5092746;28;20093;-73
2022/04/06 10:10:34;;;;;;;;;;;;;;;13.27;86.54;95261.66;5107658;27;20451;-73
2022/04/06 10:13:02;;;;;;;2.10;1.00;;;;;;;12.94;82.68;95265.81;5112258;27;20380;-75
2022/04/06 10:15:27;;;;;;;4.77;1.17;;;;;;;13.06;84.66;95265.22;5110649;27;20031;-74
2022/04/06 10:17:53;;;;;;;3.93;1.93;;;;;;;13.51;80.97;95260.25;5112199;27;20579;-75
2022/04/06 10:20:52;;;;;;;3.00;1.70;;;;;;;13.24;78.23;95248.81;5107218;27;20063;-75
2022/04/06 10:23:55;;;;;;;1.97;1.00;;;;;;;13.20;79.04;95246.56;5113173;27;20130;-74
2022/04/06 10:26:45;;;;;;;1.55;0.82;;;;;;;13.11;79.55;95250.41;5116332;27;20038;-74
2022/04/06 10:29:11;;;;;;;1.63;0.83;;;;;;;12.93;79.93;95248.31;5104503;27;20038;-75
2022/04/06 10:31:37;;;;;;;1.40;0.80;;;;;;;12.71;79.84;95249.47;5109787;27;20027;-74
2022/04/06 10:34:21;;;;;;;11.33;6.17;;;;;;;12.63;81.07;95239.06;5109047;27;20028;-74
2022/04/06 10:37:07;;;;;;;3.97;1.93;;;;;;;12.14;84.59;95250.53;5108626;27;20123;-75
2022/04/06 10:39:54;;;;;;;3.33;1.77;;;;;;;12.05;85.01;95241.19;5108027;27;20060;-74
2022/04/06 10:42:30;;;;;;;2.83;1.50;;;;;;;12.80;83.94;95232.44;5107156;27;20066;-74
2022/04/06 10:44:56;;;;;;;2.73;1.17;;;;;;;12.78;83.67;95228.41;5115449;27;20428;-75
2022/04/06 10:47:23;;;;;;;1.60;1.20;;;;;;;12.91;81.20;95217.84;5109796;27;20068;-74
2022/04/06 10:50:07;;;;;;;2.13;1.20;;;;;;;13.37;77.38;95215.34;5108817;28;20076;-75
2022/04/06 10:52:33;;;;;;;3.07;0.90;;;;;;;14.00;72.84;95207.03;5104305;27;20373;-74
2022/04/06 10:55:12;;;;;;;1.43;0.70;;;;;;;13.18;72.78;95213.47;5111756;27;20081;-74
2022/04/06 10:58:03;;;;;;;3.60;0.83;;;;;;;13.76;68.37;95203.19;5104523;27;20032;-75
2022/04/06 11:00:30;;;;;;;2.00;1.07;;;;;;;14.22;66.64;95197.03;5107456;27;20080;-74
2022/04/06 11:03:18;;;;;;;1.80;0.73;;;;;;;14.80;65.89;95204.19;5110657;27;20026;-74
2022/04/06 11:05:49;;;;;;;2.43;1.00;;;;;;;14.74;66.91;95189.94;5105870;28;20031;-74
2022/04/06 11:11:36;;;;;;;1.42;0.80;;;;;;;13.71;71.96;95199.53;5108675;28;20127;-75
2022/04/06 11:14:03;;;;;;;2.95;1.13;;;;;;;14.30;72.04;95191.50;5106772;28;20035;-74
2022/04/06 11:16:44;;;;;;;1.58;0.70;;;;;;;14.11;70.99;95187.88;5102963;27;20031;-75
2022/04/06 11:19:10;;;;;;;2.35;1.10;;;;;;;13.84;71.52;95192.38;5103596;28;20118;-75
2022/04/06 11:21:46;;;;;;;2.13;1.05;;;;;;;14.04;69.72;95186.28;5106630;27;20023;-75
2022/04/06 11:24:21;;;;;;;1.50;0.90;;;;;;;14.42;69.03;95178.47;5103235;28;20032;-75
2022/04/06 11:26:47;;;;;;;1.90;1.13;;;;;;;14.39;68.48;95177.03;5094953;28;20113;-75
2022/04/06 11:29:13;;;;;;;1.98;1.00;;;;;;;14.17;69.09;95172.22;5110453;27;20046;-76
2022/04/06 11:31:59;;;;;;;1.70;0.95;;;;;;;13.87;70.88;95167.38;5097163;28;20028;-75
2022/04/06 11:34:39;;;;;;;1.90;1.08;;;;;;;14.34;70.12;95162.81;5097027;27;20426;-75
2022/04/06 11:37:07;;;;;;;3.83;0.82;;;;;;;14.41;67.74;95166.22;5095000;28;20092;-75
2022/04/06 11:39:33;;;;;;;2.67;1.10;;;;;;;14.15;69.43;95159.19;5107622;27;20027;-75
2022/04/06 11:42:01;;;;;;;1.25;0.90;;;;;;;14.24;67.89;95151.84;5118222;27;20039;-75
2022/04/06 11:44:28;;;;;;;1.50;0.75;;;;;;;15.13;63.46;95152.91;5107659;27;20023;-75